sensor_id;sensor_type;location;lat;lon;timestamp;pressure;altitude;pressure_sealevel;temperature;humidity
40992;BME280;29633;49.168;9.848;2022-08-21T00:02:03;96962.41;;;21.94;64.00
40992;BME280;29633;49.168;9.848;2022-08-21T00:04:30;96957.03;;;21.88;64.14
40992;BME280;29633;49.168;9.848;2022-08-21T00:06:57;96962.06;;;21.83;64.07
40992;BME280;29633;49.168;9.848;2022-08-21T00:09:23;96962.16;;;21.75;63.78
40992;BME280;29633;49.168;9.848;2022-08-21T00:11:49;96960.13;;;21.70;63.83
40992;BME280;29633;49.168;9.848;2022-08-21T00:14:15;96957.66;;;21.69;64.05
40992;BME280;29633;49.168;9.848;2022-08-21T00:16:41;96950.56;;;21.69;63.95
40992;BME280;29633;49.168;9.848;2022-08-21T00:19:08;96943.63;;;21.68;64.04
40992;BME280;29633;49.168;9.848;2022-08-21T00:21:35;96951.56;;;21.68;64.03
40992;BME280;29633;49.168;9.848;2022-08-21T00:24:02;96947.28;;;21.67;63.60
40992;BME280;29633;49.168;9.848;2022-08-21T00:26:27;96942.22;;;21.66;63.83
40992;BME280;29633;49.168;9.848;2022-08-21T00:28:53;96938.13;;;21.63;64.02
40992;BME280;29633;49.168;9.848;2022-08-21T00:31:19;96948.03;;;21.61;64.09
40992;BME280;29633;49.168;9.848;2022-08-21T00:33:45;96940.31;;;21.59;63.69
40992;BME280;29633;49.168;9.848;2022-08-21T00:36:13;96936.88;;;21.59;63.96
40992;BME280;29633;49.168;9.848;2022-08-21T00:38:39;96936.88;;;21.59;64.13
40992;BME280;29633;49.168;9.848;2022-08-21T00:41:08;96935.66;;;21.62;63.98
40992;BME280;29633;49.168;9.848;2022-08-21T00:43:37;96934.47;;;21.64;64.22
40992;BME280;29633;49.168;9.848;2022-08-21T00:46:04;96941.56;;;21.64;64.08
40992;BME280;29633;49.168;9.848;2022-08-21T00:48:31;96941.94;;;21.60;64.18
40992;BME280;29633;49.168;9.848;2022-08-21T00:51:22;96943.53;;;21.55;63.89
40992;BME280;29633;49.168;9.848;2022-08-21T00:53:56;96944.34;;;21.55;63.86
40992;BME280;29633;49.168;9.848;2022-08-21T00:56:23;96933.97;;;21.54;63.66
40992;BME280;29633;49.168;9.848;2022-08-21T00:58:49;96927.97;;;21.45;63.59
40992;BME280;29633;49.168;9.848;2022-08-21T01:01:17;96931.09;;;21.34;63.47
40992;BME280;29633;49.168;9.848;2022-08-21T01:03:43;96931.03;;;21.28;63.66
40992;BME280;29633;49.168;9.848;2022-08-21T01:06:09;96922.69;;;21.24;63.54
40992;BME280;29633;49.168;9.848;2022-08-21T01:08:35;96924.88;;;21.21;63.97
40992;BME280;29633;49.168;9.848;2022-08-21T01:11:03;96927.25;;;21.16;63.52
40992;BME280;29633;49.168;9.848;2022-08-21T01:13:32;96918.97;;;21.04;63.57
40992;BME280;29633;49.168;9.848;2022-08-21T01:16:00;96925.78;;;20.98;63.78
40992;BME280;29633;49.168;9.848;2022-08-21T01:18:29;96915.81;;;20.94;63.76
40992;BME280;29633;49.168;9.848;2022-08-21T01:23:39;96922.38;;;20.83;63.61
40992;BME280;29633;49.168;9.848;2022-08-21T01:26:06;96920.28;;;20.79;63.51
40992;BME280;29633;49.168;9.848;2022-08-21T01:28:40;96916.91;;;20.70;63.46
40992;BME280;29633;49.168;9.848;2022-08-21T01:31:08;96912.56;;;20.62;63.91
40992;BME280;29633;49.168;9.848;2022-08-21T01:33:36;96916.38;;;20.60;63.77
40992;BME280;29633;49.168;9.848;2022-08-21T01:36:03;96906.84;;;20.59;63.45
40992;BME280;29633;49.168;9.848;2022-08-21T01:38:29;96914.13;;;20.57;63.77
40992;BME280;29633;49.168;9.848;2022-08-21T01:40:55;96911.66;;;20.55;63.38
40992;BME280;29633;49.168;9.848;2022-08-21T01:43:20;96907.75;;;20.51;63.64
40992;BME280;29633;49.168;9.848;2022-08-21T01:45:46;96916.38;;;20.45;63.56
40992;BME280;29633;49.168;9.848;2022-08-21T01:48:12;96915.09;;;20.41;63.85
40992;BME280;29633;49.168;9.848;2022-08-21T01:50:37;96914.03;;;20.36;63.61
40992;BME280;29633;49.168;9.848;2022-08-21T01:53:04;96913.25;;;20.27;63.79
40992;BME280;29633;49.168;9.848;2022-08-21T01:55:29;96913.44;;;20.26;63.35
40992;BME280;29633;49.168;9.848;2022-08-21T01:57:58;96917.06;;;20.25;63.51
40992;BME280;29633;49.168;9.848;2022-08-21T02:00:25;96918.88;;;20.24;63.60
40992;BME280;29633;49.168;9.848;2022-08-21T02:02:51;96917.88;;;20.25;63.40
40992;BME280;29633;49.168;9.848;2022-08-21T02:05:18;96910.81;;;20.26;63.38
40992;BME280;29633;49.168;9.848;2022-08-21T02:07:49;96907.34;;;20.25;63.56
40992;BME280;29633;49.168;9.848;2022-08-21T02:10:22;96906.91;;;20.22;63.59
40992;BME280;29633;49.168;9.848;2022-08-21T02:12:48;96903.97;;;20.17;63.77
40992;BME280;29633;49.168;9.848;2022-08-21T02:15:15;96909.41;;;20.15;63.57
40992;BME280;29633;49.168;9.848;2022-08-21T02:17:52;96911.31;;;20.06;63.47
40992;BME280;29633;49.168;9.848;2022-08-21T02:20:28;96904.31;;;19.99;63.44
40992;BME280;29633;49.168;9.848;2022-08-21T02:22:55;96900.91;;;19.90;63.62
40992;BME280;29633;49.168;9.848;2022-08-21T02:25:24;96900.47;;;19.87;63.37
40992;BME280;29633;49.168;9.848;2022-08-21T02:27:50;96908.91;;;19.82;63.52
40992;BME280;29633;49.168;9.848;2022-08-21T02:30:26;96902.81;;;19.82;63.58
40992;BME280;29633;49.168;9.848;2022-08-21T02:32:53;96909.22;;;19.79;63.34
40992;BME280;29633;49.168;9.848;2022-08-21T02:35:20;96899.91;;;19.77;63.65
40992;BME280;29633;49.168;9.848;2022-08-21T02:37:51;96891.38;;;19.75;63.60
40992;BME280;29633;49.168;9.848;2022-08-21T02:40:22;96896.63;;;19.75;63.64
40992;BME280;29633;49.168;9.848;2022-08-21T02:42:48;96895.16;;;19.72;63.30
40992;BME280;29633;49.168;9.848;2022-08-21T02:45:15;96895.03;;;19.65;63.46
40992;BME280;29633;49.168;9.848;2022-08-21T02:47:53;96894.13;;;19.58;63.67
40992;BME280;29633;49.168;9.848;2022-08-21T02:50:27;96901.38;;;19.56;63.80
40992;BME280;29633;49.168;9.848;2022-08-21T02:52:53;96900.38;;;19.57;63.76
40992;BME280;29633;49.168;9.848;2022-08-21T02:55:21;96904.84;;;19.57;63.65
40992;BME280;29633;49.168;9.848;2022-08-21T02:57:47;96895.47;;;19.54;63.84
40992;BME280;29633;49.168;9.848;2022-08-21T03:00:15;96898.56;;;19.58;63.52
40992;BME280;29633;49.168;9.848;2022-08-21T03:02:41;96896.75;;;19.58;63.43
40992;BME280;29633;49.168;9.848;2022-08-21T03:05:09;96896.44;;;19.53;63.65
40992;BME280;29633;49.168;9.848;2022-08-21T03:07:36;96900.50;;;19.41;63.54
40992;BME280;29633;49.168;9.848;2022-08-21T03:10:04;96897.88;;;19.33;63.10
40992;BME280;29633;49.168;9.848;2022-08-21T03:12:30;96904.66;;;19.28;63.23
40992;BME280;29633;49.168;9.848;2022-08-21T03:14:56;96904.19;;;19.24;63.48
40992;BME280;29633;49.168;9.848;2022-08-21T03:17:22;96899.63;;;19.18;63.42
40992;BME280;29633;49.168;9.848;2022-08-21T03:19:47;96897.19;;;19.16;63.53
40992;BME280;29633;49.168;9.848;2022-08-21T03:22:13;96897.19;;;19.16;63.75
40992;BME280;29633;49.168;9.848;2022-08-21T03:24:39;96900.44;;;19.18;63.43
40992;BME280;29633;49.168;9.848;2022-08-21T03:27:04;96896.00;;;19.19;63.74
40992;BME280;29633;49.168;9.848;2022-08-21T03:29:30;96891.94;;;19.16;63.64
40992;BME280;29633;49.168;9.848;2022-08-21T03:31:56;96899.16;;;19.14;63.76
40992;BME280;29633;49.168;9.848;2022-08-21T03:34:21;96901.97;;;19.13;63.90
40992;BME280;29633;49.168;9.848;2022-08-21T03:36:48;96898.31;;;19.14;63.93
40992;BME280;29633;49.168;9.848;2022-08-21T03:39:16;96903.94;;;19.11;63.71
40992;BME280;29633;49.168;9.848;2022-08-21T03:41:42;96905.13;;;19.00;63.58
40992;BME280;29633;49.168;9.848;2022-08-21T03:44:08;96910.59;;;18.99;63.38
40992;BME280;29633;49.168;9.848;2022-08-21T03:46:34;96907.94;;;18.99;63.81
40992;BME280;29633;49.168;9.848;2022-08-21T03:49:00;96900.38;;;18.96;63.79
40992;BME280;29633;49.168;9.848;2022-08-21T03:51:26;96912.06;;;18.93;63.67
40992;BME280;29633;49.168;9.848;2022-08-21T03:53:52;96908.63;;;18.93;63.77
40992;BME280;29633;49.168;9.848;2022-08-21T03:56:18;96913.41;;;18.89;63.49
40992;BME280;29633;49.168;9.848;2022-08-21T03:58:43;96913.59;;;18.88;63.76
40992;BME280;29633;49.168;9.848;2022-08-21T04:01:10;96914.38;;;18.88;63.84
40992;BME280;29633;49.168;9.848;2022-08-21T04:03:37;96913.91;;;18.85;63.88
40992;BME280;29633;49.168;9.848;2022-08-21T04:06:03;96913.91;;;18.85;63.88
40992;BME280;29633;49.168;9.848;2022-08-21T04:08:29;96916.22;;;18.88;63.79
40992;BME280;29633;49.168;9.848;2022-08-21T04:10:57;96918.03;;;18.87;63.91
40992;BME280;29633;49.168;9.848;2022-08-21T04:13:24;96923.94;;;18.81;63.80
40992;BME280;29633;49.168;9.848;2022-08-21T04:15:51;96926.75;;;18.80;63.67
40992;BME280;29633;49.168;9.848;2022-08-21T04:18:17;96928.41;;;18.81;63.55
40992;BME280;29633;49.168;9.848;2022-08-21T04:20:45;96935.59;;;18.79;63.77
40992;BME280;29633;49.168;9.848;2022-08-21T04:23:11;96932.34;;;18.77;63.65
40992;BME280;29633;49.168;9.848;2022-08-21T04:25:37;96940.84;;;18.79;63.96
40992;BME280;29633;49.168;9.848;2022-08-21T04:28:04;96934.78;;;18.78;63.87
40992;BME280;29633;49.168;9.848;2022-08-21T04:30:29;96936.09;;;18.74;63.63
40992;BME280;29633;49.168;9.848;2022-08-21T04:32:57;96932.22;;;18.70;63.46
40992;BME280;29633;49.168;9.848;2022-08-21T04:35:26;96943.56;;;18.62;63.71
40992;BME280;29633;49.168;9.848;2022-08-21T04:37:52;96944.53;;;18.61;63.84
40992;BME280;29633;49.168;9.848;2022-08-21T04:40:20;96946.00;;;18.64;63.82
40992;BME280;29633;49.168;9.848;2022-08-21T04:42:51;96949.59;;;18.63;63.93
40992;BME280;29633;49.168;9.848;2022-08-21T04:45:23;96948.47;;;18.65;63.89
40992;BME280;29633;49.168;9.848;2022-08-21T04:47:51;96950.09;;;18.66;63.85
40992;BME280;29633;49.168;9.848;2022-08-21T04:50:18;96960.09;;;18.63;64.00
40992;BME280;29633;49.168;9.848;2022-08-21T04:52:44;96952.41;;;18.61;63.77
40992;BME280;29633;49.168;9.848;2022-08-21T04:55:10;96956.84;;;18.61;63.72
40992;BME280;29633;49.168;9.848;2022-08-21T04:57:37;96957.00;;;18.59;64.07
40992;BME280;29633;49.168;9.848;2022-08-21T05:00:05;96958.31;;;18.63;63.90
40992;BME280;29633;49.168;9.848;2022-08-21T05:02:32;96964.22;;;18.65;63.88
40992;BME280;29633;49.168;9.848;2022-08-21T05:04:59;96966.84;;;18.65;63.96
40992;BME280;29633;49.168;9.848;2022-08-21T05:07:28;96968.31;;;18.68;64.12
40992;BME280;29633;49.168;9.848;2022-08-21T05:09:55;96970.44;;;18.73;64.06
40992;BME280;29633;49.168;9.848;2022-08-21T05:12:22;96970.72;;;18.78;64.02
40992;BME280;29633;49.168;9.848;2022-08-21T05:14:47;96962.34;;;18.82;64.50
40992;BME280;29633;49.168;9.848;2022-08-21T05:17:14;96972.16;;;18.88;64.35
40992;BME280;29633;49.168;9.848;2022-08-21T05:19:40;96968.06;;;18.94;64.44
40992;BME280;29633;49.168;9.848;2022-08-21T05:22:06;96970.00;;;19.00;64.33
40992;BME280;29633;49.168;9.848;2022-08-21T05:24:32;96971.97;;;19.06;64.48
40992;BME280;29633;49.168;9.848;2022-08-21T05:26:59;96967.97;;;19.10;64.83
40992;BME280;29633;49.168;9.848;2022-08-21T05:29:25;96973.91;;;19.12;65.21
40992;BME280;29633;49.168;9.848;2022-08-21T05:31:51;96980.09;;;19.19;64.88
40992;BME280;29633;49.168;9.848;2022-08-21T05:34:23;96978.44;;;19.26;65.25
40992;BME280;29633;49.168;9.848;2022-08-21T05:36:49;96976.75;;;19.33;65.18
40992;BME280;29633;49.168;9.848;2022-08-21T05:39:15;96975.88;;;19.41;65.21
40992;BME280;29633;49.168;9.848;2022-08-21T05:41:41;96981.97;;;19.49;65.01
40992;BME280;29633;49.168;9.848;2022-08-21T05:44:07;96983.38;;;19.60;65.07
40992;BME280;29633;49.168;9.848;2022-08-21T05:46:32;96984.94;;;19.69;65.25
40992;BME280;29633;49.168;9.848;2022-08-21T05:48:58;96982.91;;;19.79;65.21
40992;BME280;29633;49.168;9.848;2022-08-21T05:51:24;96984.50;;;19.88;65.28
40992;BME280;29633;49.168;9.848;2022-08-21T05:53:49;96979.97;;;19.97;65.18
40992;BME280;29633;49.168;9.848;2022-08-21T05:56:16;96980.56;;;20.07;65.25
40992;BME280;29633;49.168;9.848;2022-08-21T05:58:42;96982.13;;;20.16;65.01
40992;BME280;29633;49.168;9.848;2022-08-21T06:01:09;96986.13;;;20.27;65.06
40992;BME280;29633;49.168;9.848;2022-08-21T06:03:39;96980.66;;;20.36;65.02
40992;BME280;29633;49.168;9.848;2022-08-21T06:06:05;96987.47;;;20.45;64.85
40992;BME280;29633;49.168;9.848;2022-08-21T06:08:32;96989.22;;;20.53;64.65
40992;BME280;29633;49.168;9.848;2022-08-21T06:11:00;96973.06;;;20.56;64.91
40992;BME280;29633;49.168;9.848;2022-08-21T06:13:26;96976.44;;;20.65;64.29
40992;BME280;29633;49.168;9.848;2022-08-21T06:16:16;96979.53;;;20.68;64.35
40992;BME280;29633;49.168;9.848;2022-08-21T06:18:44;96976.34;;;20.73;64.66
40992;BME280;29633;49.168;9.848;2022-08-21T06:21:11;96975.25;;;20.82;64.27
40992;BME280;29633;49.168;9.848;2022-08-21T06:23:38;96978.16;;;20.87;64.27
40992;BME280;29633;49.168;9.848;2022-08-21T06:26:05;96977.06;;;20.96;64.42
40992;BME280;29633;49.168;9.848;2022-08-21T06:28:33;96982.25;;;21.04;64.23
40992;BME280;29633;49.168;9.848;2022-08-21T06:31:01;96985.00;;;21.10;64.01
40992;BME280;29633;49.168;9.848;2022-08-21T06:33:34;96988.34;;;21.19;64.17
40992;BME280;29633;49.168;9.848;2022-08-21T06:36:00;96990.25;;;21.25;63.92
40992;BME280;29633;49.168;9.848;2022-08-21T06:38:26;96992.50;;;21.28;64.29
40992;BME280;29633;49.168;9.848;2022-08-21T06:40:51;96988.13;;;21.35;64.29
40992;BME280;29633;49.168;9.848;2022-08-21T06:43:17;96982.13;;;21.41;64.35
40992;BME280;29633;49.168;9.848;2022-08-21T06:45:43;96983.38;;;21.45;64.16
40992;BME280;29633;49.168;9.848;2022-08-21T06:48:09;96983.47;;;21.52;63.92
40992;BME280;29633;49.168;9.848;2022-08-21T06:50:36;96977.63;;;21.56;64.21
40992;BME280;29633;49.168;9.848;2022-08-21T06:53:09;96979.91;;;21.59;63.55
40992;BME280;29633;49.168;9.848;2022-08-21T06:55:36;96983.34;;;21.60;64.09
40992;BME280;29633;49.168;9.848;2022-08-21T06:58:02;96985.25;;;21.66;63.98
40992;BME280;29633;49.168;9.848;2022-08-21T07:00:29;96990.75;;;21.71;63.90
40992;BME280;29633;49.168;9.848;2022-08-21T07:02:55;96988.38;;;21.76;63.43
40992;BME280;29633;49.168;9.848;2022-08-21T07:05:22;96980.72;;;21.81;63.75
40992;BME280;29633;49.168;9.848;2022-08-21T07:07:47;96989.19;;;21.91;63.10
40992;BME280;29633;49.168;9.848;2022-08-21T07:10:15;96991.06;;;21.97;63.33
40992;BME280;29633;49.168;9.848;2022-08-21T07:12:40;96980.56;;;22.04;63.18
40992;BME280;29633;49.168;9.848;2022-08-21T07:15:07;96987.75;;;22.10;63.13
40992;BME280;29633;49.168;9.848;2022-08-21T07:17:33;96980.03;;;22.15;62.98
40992;BME280;29633;49.168;9.848;2022-08-21T07:19:58;96989.66;;;22.23;62.84
40992;BME280;29633;49.168;9.848;2022-08-21T07:22:24;96985.47;;;22.28;62.47
40992;BME280;29633;49.168;9.848;2022-08-21T07:24:54;96979.59;;;22.33;62.27
40992;BME280;29633;49.168;9.848;2022-08-21T07:27:20;96982.66;;;22.36;62.51
40992;BME280;29633;49.168;9.848;2022-08-21T07:29:45;96984.16;;;22.45;62.29
40992;BME280;29633;49.168;9.848;2022-08-21T07:32:11;96985.25;;;22.57;62.34
40992;BME280;29633;49.168;9.848;2022-08-21T07:34:37;96980.50;;;22.68;62.24
40992;BME280;29633;49.168;9.848;2022-08-21T07:37:03;96979.13;;;22.78;61.82
40992;BME280;29633;49.168;9.848;2022-08-21T07:39:29;96970.03;;;22.87;61.95
40992;BME280;29633;49.168;9.848;2022-08-21T07:41:55;96969.88;;;22.95;61.94
40992;BME280;29633;49.168;9.848;2022-08-21T07:44:20;96967.88;;;23.04;61.77
40992;BME280;29633;49.168;9.848;2022-08-21T07:46:46;96961.59;;;23.12;61.45
40992;BME280;29633;49.168;9.848;2022-08-21T07:49:12;96963.25;;;23.19;61.65
40992;BME280;29633;49.168;9.848;2022-08-21T07:51:38;96962.50;;;23.32;61.38
40992;BME280;29633;49.168;9.848;2022-08-21T07:54:04;96960.13;;;23.43;61.53
40992;BME280;29633;49.168;9.848;2022-08-21T07:56:31;96958.75;;;23.54;61.33
40992;BME280;29633;49.168;9.848;2022-08-21T07:58:57;96961.41;;;23.61;61.12
40992;BME280;29633;49.168;9.848;2022-08-21T08:01:24;96953.69;;;23.66;61.41
40992;BME280;29633;49.168;9.848;2022-08-21T08:03:50;96954.53;;;23.79;60.99
40992;BME280;29633;49.168;9.848;2022-08-21T08:06:16;96958.41;;;23.90;60.99
40992;BME280;29633;49.168;9.848;2022-08-21T08:08:45;96957.00;;;24.00;61.36
40992;BME280;29633;49.168;9.848;2022-08-21T08:11:12;96955.56;;;24.11;60.82
40992;BME280;29633;49.168;9.848;2022-08-21T08:13:45;96956.41;;;24.18;60.92
40992;BME280;29633;49.168;9.848;2022-08-21T08:16:11;96957.22;;;24.32;60.66
40992;BME280;29633;49.168;9.848;2022-08-21T08:18:37;96949.25;;;24.38;60.57
40992;BME280;29633;49.168;9.848;2022-08-21T08:21:04;96950.88;;;24.46;60.65
40992;BME280;29633;49.168;9.848;2022-08-21T08:23:31;96950.91;;;24.53;60.41
40992;BME280;29633;49.168;9.848;2022-08-21T08:25:58;96936.00;;;24.58;60.70
40992;BME280;29633;49.168;9.848;2022-08-21T08:28:24;96940.03;;;24.67;60.46
40992;BME280;29633;49.168;9.848;2022-08-21T08:30:50;96933.69;;;24.75;60.17
40992;BME280;29633;49.168;9.848;2022-08-21T08:33:17;96941.44;;;24.83;60.23
40992;BME280;29633;49.168;9.848;2022-08-21T08:35:46;96928.00;;;24.91;60.06
40992;BME280;29633;49.168;9.848;2022-08-21T08:38:13;96930.81;;;25.03;59.97
40992;BME280;29633;49.168;9.848;2022-08-21T08:41:10;96929.97;;;25.09;60.19
40992;BME280;29633;49.168;9.848;2022-08-21T08:43:38;96927.66;;;25.19;60.23
40992;BME280;29633;49.168;9.848;2022-08-21T08:46:15;96927.88;;;25.24;59.98
40992;BME280;29633;49.168;9.848;2022-08-21T08:48:57;96932.53;;;25.28;60.23
40992;BME280;29633;49.168;9.848;2022-08-21T08:51:36;96930.81;;;25.40;59.82
40992;BME280;29633;49.168;9.848;2022-08-21T08:54:09;96925.69;;;25.52;59.85
40992;BME280;29633;49.168;9.848;2022-08-21T08:56:36;96930.53;;;25.62;59.87
40992;BME280;29633;49.168;9.848;2022-08-21T08:59:25;96931.50;;;25.74;59.64
40992;BME280;29633;49.168;9.848;2022-08-21T09:01:52;96934.88;;;25.87;59.53
40992;BME280;29633;49.168;9.848;2022-08-21T09:04:24;96937.22;;;26.02;59.49
40992;BME280;29633;49.168;9.848;2022-08-21T09:09:30;96929.06;;;26.28;59.02
40992;BME280;29633;49.168;9.848;2022-08-21T09:12:25;96927.09;;;26.42;59.02
40992;BME280;29633;49.168;9.848;2022-08-21T09:15:16;96927.78;;;26.56;58.45
40992;BME280;29633;49.168;9.848;2022-08-21T09:21:06;96919.16;;;26.78;58.37
40992;BME280;29633;49.168;9.848;2022-08-21T09:23:55;96907.34;;;26.92;58.14
40992;BME280;29633;49.168;9.848;2022-08-21T09:26:52;96911.72;;;27.05;57.91
40992;BME280;29633;49.168;9.848;2022-08-21T09:29:25;96912.00;;;27.15;57.48
40992;BME280;29633;49.168;9.848;2022-08-21T09:31:55;96910.66;;;27.24;56.83
40992;BME280;29633;49.168;9.848;2022-08-21T09:34:28;96900.66;;;27.38;56.74
40992;BME280;29633;49.168;9.848;2022-08-21T09:36:55;96908.13;;;27.48;56.52
40992;BME280;29633;49.168;9.848;2022-08-21T09:39:32;96907.81;;;27.56;56.06
40992;BME280;29633;49.168;9.848;2022-08-21T09:42:05;96912.38;;;27.67;55.88
40992;BME280;29633;49.168;9.848;2022-08-21T09:44:34;96910.78;;;27.77;55.38
40992;BME280;29633;49.168;9.848;2022-08-21T09:47:08;96914.72;;;27.86;55.21
40992;BME280;29633;49.168;9.848;2022-08-21T09:49:40;96910.69;;;27.96;54.70
40992;BME280;29633;49.168;9.848;2022-08-21T09:52:20;96909.63;;;27.97;54.22
40992;BME280;29633;49.168;9.848;2022-08-21T09:54:53;96901.78;;;28.02;54.07
40992;BME280;29633;49.168;9.848;2022-08-21T09:57:26;96906.44;;;28.06;53.74
40992;BME280;29633;49.168;9.848;2022-08-21T10:00:24;96905.06;;;28.15;53.68
40992;BME280;29633;49.168;9.848;2022-08-21T10:02:50;96909.38;;;28.28;53.40
40992;BME280;29633;49.168;9.848;2022-08-21T10:05:24;96913.09;;;28.39;52.74
40992;BME280;29633;49.168;9.848;2022-08-21T10:07:50;96907.50;;;28.52;51.92
40992;BME280;29633;49.168;9.848;2022-08-21T10:13:12;96900.78;;;28.61;52.85
40992;BME280;29633;49.168;9.848;2022-08-21T10:18:38;96894.28;;;28.80;51.34
40992;BME280;29633;49.168;9.848;2022-08-21T10:21:21;96886.38;;;28.85;51.05
40992;BME280;29633;49.168;9.848;2022-08-21T10:24:31;96889.63;;;28.87;50.34
40992;BME280;29633;49.168;9.848;2022-08-21T10:30:10;96884.59;;;29.02;49.35
40992;BME280;29633;49.168;9.848;2022-08-21T10:35:36;96882.91;;;29.24;49.35
40992;BME280;29633;49.168;9.848;2022-08-21T10:41:43;96891.69;;;29.48;49.00
40992;BME280;29633;49.168;9.848;2022-08-21T10:44:30;96887.78;;;29.56;48.70
40992;BME280;29633;49.168;9.848;2022-08-21T10:47:29;96881.22;;;29.63;48.89
40992;BME280;29633;49.168;9.848;2022-08-21T10:58:37;96873.88;;;29.70;46.61
40992;BME280;29633;49.168;9.848;2022-08-21T11:04:16;96867.16;;;29.68;46.81
40992;BME280;29633;49.168;9.848;2022-08-21T11:06:50;96870.97;;;29.72;46.41
40992;BME280;29633;49.168;9.848;2022-08-21T11:09:22;96866.78;;;29.76;46.12
40992;BME280;29633;49.168;9.848;2022-08-21T11:12:34;96862.25;;;29.76;46.55
40992;BME280;29633;49.168;9.848;2022-08-21T11:15:39;96858.25;;;29.79;46.09
40992;BME280;29633;49.168;9.848;2022-08-21T11:18:22;96861.03;;;29.84;45.48
40992;BME280;29633;49.168;9.848;2022-08-21T11:27:32;96848.34;;;29.91;45.40
40992;BME280;29633;49.168;9.848;2022-08-21T11:30:03;96845.81;;;30.01;45.47
40992;BME280;29633;49.168;9.848;2022-08-21T11:36:11;96847.84;;;30.11;45.57
40992;BME280;29633;49.168;9.848;2022-08-21T11:38:42;96850.09;;;30.19;45.88
40992;BME280;29633;49.168;9.848;2022-08-21T11:44:16;96846.22;;;30.26;44.73
40992;BME280;29633;49.168;9.848;2022-08-21T11:52:23;96842.59;;;30.54;44.63
40992;BME280;29633;49.168;9.848;2022-08-21T11:55:14;96836.81;;;30.62;44.54
40992;BME280;29633;49.168;9.848;2022-08-21T11:58:02;96833.91;;;30.64;44.20
40992;BME280;29633;49.168;9.848;2022-08-21T12:00:42;96828.81;;;30.62;43.97
40992;BME280;29633;49.168;9.848;2022-08-21T12:03:17;96836.63;;;30.69;43.39
40992;BME280;29633;49.168;9.848;2022-08-21T12:06:13;96828.41;;;30.75;43.72
40992;BME280;29633;49.168;9.848;2022-08-21T12:08:45;96827.19;;;30.83;43.19
40992;BME280;29633;49.168;9.848;2022-08-21T12:14:12;96821.28;;;30.81;42.79
40992;BME280;29633;49.168;9.848;2022-08-21T12:16:48;96824.75;;;30.82;42.24
40992;BME280;29633;49.168;9.848;2022-08-21T12:27:45;96825.75;;;30.97;42.44
40992;BME280;29633;49.168;9.848;2022-08-21T12:30:34;96823.69;;;31.04;42.16
40992;BME280;29633;49.168;9.848;2022-08-21T12:33:05;96819.22;;;31.10;41.80
40992;BME280;29633;49.168;9.848;2022-08-21T12:35:40;96829.22;;;31.19;40.85
40992;BME280;29633;49.168;9.848;2022-08-21T12:38:32;96820.69;;;31.22;40.38
40992;BME280;29633;49.168;9.848;2022-08-21T12:41:11;96819.63;;;31.23;40.10
40992;BME280;29633;49.168;9.848;2022-08-21T12:43:53;96816.94;;;31.23;40.00
40992;BME280;29633;49.168;9.848;2022-08-21T12:46:55;96814.78;;;31.20;39.96
40992;BME280;29633;49.168;9.848;2022-08-21T12:49:37;96808.97;;;31.29;39.99
40992;BME280;29633;49.168;9.848;2022-08-21T12:52:14;96801.03;;;31.39;39.79
40992;BME280;29633;49.168;9.848;2022-08-21T12:54:44;96807.53;;;31.48;38.75
40992;BME280;29633;49.168;9.848;2022-08-21T12:57:26;96801.63;;;31.46;38.60
40992;BME280;29633;49.168;9.848;2022-08-21T12:59:59;96797.94;;;31.52;38.29
40992;BME280;29633;49.168;9.848;2022-08-21T13:02:30;96792.88;;;31.55;38.11
40992;BME280;29633;49.168;9.848;2022-08-21T13:04:58;96793.69;;;31.56;38.07
40992;BME280;29633;49.168;9.848;2022-08-21T13:07:33;96784.56;;;31.52;37.52
40992;BME280;29633;49.168;9.848;2022-08-21T13:10:23;96785.34;;;31.52;37.78
40992;BME280;29633;49.168;9.848;2022-08-21T13:12:49;96783.78;;;31.56;38.07
40992;BME280;29633;49.168;9.848;2022-08-21T13:15:34;96781.69;;;31.63;37.81
40992;BME280;29633;49.168;9.848;2022-08-21T13:18:03;96787.41;;;31.72;37.21
40992;BME280;29633;49.168;9.848;2022-08-21T13:20:37;96785.84;;;31.76;36.54
40992;BME280;29633;49.168;9.848;2022-08-21T13:23:28;96786.88;;;31.75;36.04
40992;BME280;29633;49.168;9.848;2022-08-21T13:25:55;96784.97;;;31.70;36.50
40992;BME280;29633;49.168;9.848;2022-08-21T13:28:22;96778.28;;;31.73;36.43
40992;BME280;29633;49.168;9.848;2022-08-21T13:30:54;96783.09;;;31.71;35.71
40992;BME280;29633;49.168;9.848;2022-08-21T13:33:25;96784.50;;;31.79;35.77
40992;BME280;29633;49.168;9.848;2022-08-21T13:38:34;96773.78;;;31.79;35.69
40992;BME280;29633;49.168;9.848;2022-08-21T13:41:24;96774.31;;;31.76;35.62
40992;BME280;29633;49.168;9.848;2022-08-21T13:44:19;96778.84;;;31.75;35.96
40992;BME280;29633;49.168;9.848;2022-08-21T13:46:46;96782.13;;;31.82;35.63
40992;BME280;29633;49.168;9.848;2022-08-21T13:49:17;96779.97;;;31.84;35.84
40992;BME280;29633;49.168;9.848;2022-08-21T13:51:44;96788.28;;;31.83;36.00
40992;BME280;29633;49.168;9.848;2022-08-21T13:54:26;96780.03;;;31.89;36.20
40992;BME280;29633;49.168;9.848;2022-08-21T13:56:55;96783.34;;;32.01;35.98
40992;BME280;29633;49.168;9.848;2022-08-21T13:59:38;96770.25;;;32.10;36.37
40992;BME280;29633;49.168;9.848;2022-08-21T14:02:15;96773.78;;;32.15;35.89
40992;BME280;29633;49.168;9.848;2022-08-21T14:04:57;96776.25;;;32.27;35.88
40992;BME280;29633;49.168;9.848;2022-08-21T14:07:37;96777.91;;;32.33;35.61
40992;BME280;29633;49.168;9.848;2022-08-21T14:10:24;96778.72;;;32.34;35.75
40992;BME280;29633;49.168;9.848;2022-08-21T14:13:03;96773.34;;;32.39;35.46
40992;BME280;29633;49.168;9.848;2022-08-21T14:15:32;96770.72;;;32.44;35.13
40992;BME280;29633;49.168;9.848;2022-08-21T14:18:18;96775.81;;;32.45;35.08
40992;BME280;29633;49.168;9.848;2022-08-21T14:20:45;96768.00;;;32.39;35.16
40992;BME280;29633;49.168;9.848;2022-08-21T14:23:11;96759.94;;;32.34;35.10
40992;BME280;29633;49.168;9.848;2022-08-21T14:25:43;96763.13;;;32.31;34.78
40992;BME280;29633;49.168;9.848;2022-08-21T14:28:26;96761.53;;;32.35;35.22